sensor_id;sensor_type;location;lat;lon;timestamp;P1;durP1;ratioP1;P2;durP2;ratioP2
11703;SDS011;5908;51.354;7.458;2023-03-05T16:40:18;541.05;;;481.58;;
11703;SDS011;5908;51.354;7.458;2023-03-05T16:42:45;541.65;;;481.65;;
11703;SDS011;5908;51.354;7.458;2023-03-05T16:45:14;555.70;;;494.20;;
11703;SDS011;5908;51.354;7.458;2023-03-05T16:47:41;546.53;;;485.48;;
11703;SDS011;5908;51.354;7.458;2023-03-05T16:52:26;691.70;;;618.35;;
11703;SDS011;5908;51.354;7.458;2023-03-05T16:54:53;844.15;;;723.83;;
11703;SDS011;5908;51.354;7.458;2023-03-05T16:57:20;827.22;;;705.50;;
11703;SDS011;5908;51.354;7.458;2023-03-05T16:59:48;801.80;;;686.38;;
11703;SDS011;5908;51.354;7.458;2023-03-05T17:02:15;793.78;;;670.58;;
11703;SDS011;5908;51.354;7.458;2023-03-05T17:04:42;768.38;;;657.22;;
11703;SDS011;5908;51.354;7.458;2023-03-05T17:07:09;750.55;;;646.50;;
11703;SDS011;5908;51.354;7.458;2023-03-05T17:09:37;746.30;;;643.60;;
11703;SDS011;5908;51.354;7.458;2023-03-05T17:19:26;19.87;;;13.03;;
11703;SDS011;5908;51.354;7.458;2023-03-05T17:21:52;7.87;;;5.93;;
11703;SDS011;5908;51.354;7.458;2023-03-05T17:24:19;7.63;;;5.80;;
11703;SDS011;5908;51.354;7.458;2023-03-05T17:26:47;10.13;;;6.50;;
11703;SDS011;5908;51.354;7.458;2023-03-05T17:29:14;586.47;;;461.02;;
11703;SDS011;5908;51.354;7.458;2023-03-05T17:31:42;564.67;;;503.38;;
11703;SDS011;5908;51.354;7.458;2023-03-05T17:34:09;552.15;;;493.83;;
11703;SDS011;5908;51.354;7.458;2023-03-05T17:36:36;549.10;;;491.35;;
11703;SDS011;5908;51.354;7.458;2023-03-05T17:39:03;545.30;;;488.50;;
11703;SDS011;5908;51.354;7.458;2023-03-05T17:41:30;550.35;;;493.05;;
11703;SDS011;5908;51.354;7.458;2023-03-05T17:43:58;538.72;;;483.15;;
11703;SDS011;5908;51.354;7.458;2023-03-05T17:46:24;536.60;;;481.38;;
11703;SDS011;5908;51.354;7.458;2023-03-05T17:48:51;544.28;;;489.05;;
11703;SDS011;5908;51.354;7.458;2023-03-05T17:51:18;531.80;;;477.67;;
11703;SDS011;5908;51.354;7.458;2023-03-05T17:53:44;537.75;;;482.48;;
11703;SDS011;5908;51.354;7.458;2023-03-05T17:56:12;543.60;;;488.67;;
11703;SDS011;5908;51.354;7.458;2023-03-05T17:58:41;340.17;;;304.43;;
11703;SDS011;5908;51.354;7.458;2023-03-05T18:01:09;267.77;;;216.77;;
11703;SDS011;5908;51.354;7.458;2023-03-05T18:03:36;237.40;;;176.20;;
11703;SDS011;5908;51.354;7.458;2023-03-05T18:06:04;315.63;;;267.88;;
11703;SDS011;5908;51.354;7.458;2023-03-05T18:08:31;265.90;;;197.93;;
11703;SDS011;5908;51.354;7.458;2023-03-05T18:10:58;249.47;;;183.13;;
11703;SDS011;5908;51.354;7.458;2023-03-05T18:13:25;252.33;;;180.13;;
11703;SDS011;5908;51.354;7.458;2023-03-05T18:15:51;245.23;;;174.60;;
11703;SDS011;5908;51.354;7.458;2023-03-05T18:18:19;591.80;;;513.33;;
11703;SDS011;5908;51.354;7.458;2023-03-05T18:20:46;618.87;;;552.60;;
11703;SDS011;5908;51.354;7.458;2023-03-05T18:23:14;639.65;;;573.17;;
11703;SDS011;5908;51.354;7.458;2023-03-05T18:25:41;638.20;;;572.20;;
11703;SDS011;5908;51.354;7.458;2023-03-05T18:28:09;633.90;;;568.28;;
11703;SDS011;5908;51.354;7.458;2023-03-05T18:30:37;641.40;;;575.05;;
11703;SDS011;5908;51.354;7.458;2023-03-05T18:33:05;648.63;;;582.30;;
11703;SDS011;5908;51.354;7.458;2023-03-05T18:35:35;641.10;;;575.90;;
11703;SDS011;5908;51.354;7.458;2023-03-05T18:38:02;639.58;;;573.85;;
11703;SDS011;5908;51.354;7.458;2023-03-05T18:40:28;639.45;;;573.55;;
11703;SDS011;5908;51.354;7.458;2023-03-05T18:42:58;648.92;;;581.90;;
11703;SDS011;5908;51.354;7.458;2023-03-05T18:45:25;649.50;;;582.80;;
11703;SDS011;5908;51.354;7.458;2023-03-05T18:47:52;652.90;;;586.65;;
11703;SDS011;5908;51.354;7.458;2023-03-05T18:50:21;646.00;;;579.92;;
11703;SDS011;5908;51.354;7.458;2023-03-05T18:52:51;638.47;;;573.13;;
11703;SDS011;5908;51.354;7.458;2023-03-05T18:55:19;645.17;;;579.88;;
11703;SDS011;5908;51.354;7.458;2023-03-05T18:57:47;640.83;;;575.50;;
11703;SDS011;5908;51.354;7.458;2023-03-05T19:00:15;632.92;;;567.47;;
11703;SDS011;5908;51.354;7.458;2023-03-05T19:02:43;649.40;;;583.00;;
11703;SDS011;5908;51.354;7.458;2023-03-05T19:05:10;647.25;;;581.13;;
11703;SDS011;5908;51.354;7.458;2023-03-05T19:07:38;662.57;;;596.17;;
11703;SDS011;5908;51.354;7.458;2023-03-05T19:10:07;653.13;;;586.33;;
11703;SDS011;5908;51.354;7.458;2023-03-05T19:12:36;661.85;;;596.05;;
11703;SDS011;5908;51.354;7.458;2023-03-05T19:15:10;647.80;;;581.47;;
11703;SDS011;5908;51.354;7.458;2023-03-05T19:17:38;631.70;;;567.40;;
11703;SDS011;5908;51.354;7.458;2023-03-05T19:21:28;506.20;;;447.90;;
11703;SDS011;5908;51.354;7.458;2023-03-05T23:34:02;752.60;;;629.72;;
11703;SDS011;5908;51.354;7.458;2023-03-05T23:36:29;722.17;;;616.17;;
11703;SDS011;5908;51.354;7.458;2023-03-05T23:38:55;710.08;;;606.10;;
11703;SDS011;5908;51.354;7.458;2023-03-05T23:41:22;719.70;;;617.88;;
11703;SDS011;5908;51.354;7.458;2023-03-05T23:43:49;728.28;;;619.42;;
11703;SDS011;5908;51.354;7.458;2023-03-05T23:46:15;731.50;;;652.35;;
11703;SDS011;5908;51.354;7.458;2023-03-05T23:48:42;696.17;;;607.70;;
11703;SDS011;5908;51.354;7.458;2023-03-05T23:51:10;702.50;;;606.95;;
11703;SDS011;5908;51.354;7.458;2023-03-05T23:53:37;703.45;;;609.63;;
11703;SDS011;5908;51.354;7.458;2023-03-05T23:56:06;699.00;;;603.45;;
11703;SDS011;5908;51.354;7.458;2023-03-05T23:58:35;693.50;;;600.80;;
